createdAt,value
2022-12-06T00:00:46.067Z,88.47
2022-12-06T00:05:48.258Z,88.45
2022-12-06T00:10:50.366Z,88.81
2022-12-06T00:15:52.444Z,88.49
2022-12-06T00:20:54.443Z,88.20
2022-12-06T00:25:56.483Z,88.18
2022-12-06T00:31:03.515Z,87.91
2022-12-06T00:36:12.551Z,87.96
2022-12-06T00:41:16.977Z,87.72
2022-12-06T00:46:22.401Z,87.35
2022-12-06T00:51:27.501Z,87.54
2022-12-06T00:56:29.600Z,88.06
2022-12-06T01:01:33.783Z,88.85
2022-12-06T01:06:37.630Z,89.59
2022-12-06T01:11:40.006Z,89.97
2022-12-06T01:16:42.077Z,90.35
2022-12-06T01:21:44.293Z,90.47
2022-12-06T01:26:46.433Z,90.45
2022-12-06T01:31:48.663Z,90.61
2022-12-06T01:36:50.781Z,90.64
2022-12-06T01:41:53.200Z,90.44
2022-12-06T01:46:55.859Z,90.76
2022-12-06T01:52:07.622Z,91.47
2022-12-06T01:57:13.606Z,92.06
2022-12-06T02:02:16.132Z,92.08
2022-12-06T02:07:20.595Z,92.06
2022-12-06T02:12:22.760Z,91.85
2022-12-06T02:17:46.606Z,91.56
2022-12-06T02:23:10.593Z,90.65
2022-12-06T02:28:46.961Z,93.83
2022-12-06T02:33:55.625Z,96.34
2022-12-06T02:39:08.337Z,96.90
2022-12-06T02:44:19.397Z,97.44
2022-12-06T02:49:23.200Z,97.87
2022-12-06T02:54:27.173Z,98.12
2022-12-06T02:59:29.317Z,98.33
2022-12-06T03:05:15.977Z,98.53
2022-12-06T03:10:46.870Z,98.66
2022-12-06T03:15:58.972Z,98.77
2022-12-06T03:21:24.034Z,98.87
2022-12-06T03:26:31.395Z,98.97
2022-12-06T03:31:39.018Z,99.06
2022-12-06T03:36:44.234Z,99.13
2022-12-06T03:41:54.165Z,99.20
2022-12-06T03:47:07.553Z,99.26
2022-12-06T03:52:10.014Z,99.31
2022-12-06T03:57:12.144Z,99.37
2022-12-06T04:02:14.275Z,99.43
2022-12-06T04:07:21.345Z,99.47
2022-12-06T04:12:43.100Z,99.52
2022-12-06T04:18:03.754Z,99.56
2022-12-06T04:23:05.834Z,99.60
2022-12-06T04:28:26.485Z,99.64
2022-12-06T04:33:47.621Z,99.69
2022-12-06T04:38:49.735Z,99.72
2022-12-06T04:43:51.829Z,99.78
2022-12-06T04:48:53.884Z,99.81
2022-12-06T04:53:55.974Z,99.84
2022-12-06T04:58:58.131Z,99.88
2022-12-06T05:04:00.401Z,99.91
2022-12-06T05:09:03.610Z,99.92
2022-12-06T05:14:05.756Z,99.95
2022-12-06T05:19:07.998Z,99.98
2022-12-06T05:24:10.261Z,100.00
2022-12-06T05:29:12.457Z,100.00
2022-12-06T05:34:14.551Z,100.00
2022-12-06T05:39:16.819Z,100.00
2022-12-06T05:44:18.939Z,100.00
2022-12-06T05:49:21.061Z,100.00
2022-12-06T05:54:23.126Z,100.00
2022-12-06T05:59:25.213Z,100.00
2022-12-06T06:04:27.353Z,100.00
2022-12-06T06:09:29.448Z,100.00
2022-12-06T06:14:31.568Z,100.00
2022-12-06T06:19:33.691Z,100.00
2022-12-06T06:24:37.798Z,100.00
2022-12-06T06:29:45.160Z,100.00
2022-12-06T06:34:47.723Z,100.00
2022-12-06T06:39:50.147Z,100.00
2022-12-06T06:44:54.676Z,100.00
2022-12-06T06:49:56.862Z,100.00
2022-12-06T06:54:59.278Z,100.00
2022-12-06T07:00:01.704Z,100.00
2022-12-06T07:05:04.201Z,100.00
2022-12-06T07:10:07.169Z,100.00
2022-12-06T07:15:09.662Z,100.00
2022-12-06T07:20:11.928Z,100.00
2022-12-06T07:25:14.062Z,100.00
2022-12-06T07:30:17.701Z,100.00
2022-12-06T07:35:21.437Z,100.00
2022-12-06T07:41:02.836Z,100.00
2022-12-06T07:45:54.613Z,100.00
2022-12-06T07:50:56.740Z,100.00
2022-12-06T07:56:05.213Z,100.00
2022-12-06T08:01:07.415Z,100.00
2022-12-06T08:06:09.676Z,100.00
2022-12-06T08:11:11.733Z,100.00
2022-12-06T08:16:14.182Z,100.00
2022-12-06T08:21:16.680Z,100.00
2022-12-06T08:26:18.869Z,100.00
2022-12-06T08:31:23.774Z,100.00
2022-12-06T08:36:26.250Z,100.00
2022-12-06T08:41:47.103Z,100.00
2022-12-06T08:46:49.540Z,100.00
2022-12-06T08:51:52.903Z,100.00
2022-12-06T08:56:55.055Z,100.00
2022-12-06T09:01:57.185Z,100.00
2022-12-06T09:06:59.356Z,100.00
2022-12-06T09:12:01.487Z,100.00
2022-12-06T09:17:03.838Z,100.00
2022-12-06T09:22:05.920Z,100.00
2022-12-06T09:27:07.982Z,100.00
2022-12-06T09:32:10.056Z,100.00
2022-12-06T09:37:13.988Z,100.00
2022-12-06T09:42:19.112Z,100.00
2022-12-06T09:47:58.089Z,100.00
2022-12-06T09:53:12.302Z,100.00
2022-12-06T09:58:32.139Z,100.00
2022-12-06T10:03:50.848Z,99.85
2022-12-06T10:09:14.662Z,99.46
2022-12-06T10:15:00.242Z,97.43
2022-12-06T10:20:31.596Z,96.80
2022-12-06T10:25:46.205Z,84.16
2022-12-06T10:30:53.551Z,79.39
2022-12-06T10:36:05.436Z,76.23
2022-12-06T10:41:18.819Z,46.68
2022-12-06T10:46:55.850Z,39.79
2022-12-06T10:52:22.526Z,35.39
2022-12-06T10:57:49.471Z,33.60
2022-12-06T11:03:03.575Z,35.53
2022-12-06T11:08:24.185Z,36.24
2022-12-06T11:13:49.735Z,37.83
2022-12-06T11:18:56.026Z,39.86
2022-12-06T11:24:48.082Z,32.20
2022-12-06T11:29:51.286Z,36.84
2022-12-06T11:34:57.062Z,42.24
2022-12-06T11:40:22.420Z,45.52
2022-12-06T11:45:32.096Z,44.98
2022-12-06T11:50:36.648Z,51.33
2022-12-06T11:55:44.817Z,60.49
2022-12-06T12:00:57.786Z,63.87
2022-12-06T12:06:27.495Z,64.56
2022-12-06T12:11:32.738Z,65.56
2022-12-06T12:16:37.615Z,66.01
2022-12-06T12:21:42.104Z,66.70
2022-12-06T12:26:44.269Z,67.74
2022-12-06T12:31:54.386Z,66.36
2022-12-06T12:37:00.331Z,66.29
2022-12-06T12:42:02.952Z,67.31
2022-12-06T12:47:17.984Z,66.63
2022-12-06T12:52:31.729Z,67.57
2022-12-06T12:57:33.937Z,68.41
2022-12-06T13:08:10.003Z,51.23
2022-12-06T13:13:20.481Z,56.47
2022-12-06T13:18:24.546Z,54.58
2022-12-06T13:23:32.233Z,60.40
2022-12-06T13:28:43.530Z,50.40
2022-12-06T13:33:52.341Z,57.16
2022-12-06T13:38:56.203Z,63.99
2022-12-06T13:43:58.420Z,66.23
2022-12-06T13:49:23.177Z,67.06
2022-12-06T13:54:30.763Z,64.73
2022-12-06T13:59:36.905Z,59.80
2022-12-06T14:04:41.766Z,63.25
2022-12-06T14:09:49.317Z,67.50
2022-12-06T14:15:00.140Z,60.84
2022-12-06T14:20:04.061Z,59.34
2022-12-06T14:25:25.473Z,57.97
2022-12-06T14:30:27.654Z,55.70
2022-12-06T14:35:36.190Z,59.34
2022-12-06T14:41:02.261Z,64.49
2022-12-06T14:46:07.450Z,67.85
2022-12-06T14:51:24.418Z,69.68
2022-12-06T14:56:34.435Z,73.16
2022-12-06T15:01:47.371Z,73.75
2022-12-06T15:06:55.831Z,74.52
2022-12-06T15:12:40.034Z,74.98
2022-12-06T15:17:42.814Z,74.13
2022-12-06T15:22:46.389Z,73.29
2022-12-06T15:27:48.430Z,73.96
2022-12-06T15:32:50.514Z,75.73
2022-12-06T15:37:52.602Z,76.37
2022-12-06T15:42:59.098Z,78.08
2022-12-06T15:48:04.399Z,78.62
2022-12-06T15:53:06.871Z,78.81
2022-12-06T15:58:08.998Z,77.49
2022-12-06T16:03:11.260Z,76.83
2022-12-06T16:08:13.547Z,76.72
2022-12-06T16:13:21.594Z,77.48
2022-12-06T16:18:23.958Z,77.96
2022-12-06T16:24:12.527Z,77.79
2022-12-06T16:29:16.459Z,77.80
2022-12-06T16:34:19.155Z,76.89
2022-12-06T16:39:21.376Z,77.08
2022-12-06T16:44:23.587Z,76.25
2022-12-06T16:49:48.374Z,77.20
2022-12-06T16:54:51.174Z,76.49
2022-12-06T16:59:55.864Z,77.95
2022-12-06T17:05:01.308Z,77.02
2022-12-06T17:10:04.633Z,78.19
2022-12-06T17:15:07.827Z,78.86
2022-12-06T17:20:12.030Z,79.42
2022-12-06T17:25:16.203Z,80.14
2022-12-06T17:30:18.346Z,77.56
2022-12-06T17:35:20.611Z,79.15
2022-12-06T17:40:22.696Z,78.75
2022-12-06T17:45:25.782Z,79.66
2022-12-06T17:50:27.881Z,78.21
2022-12-06T17:55:30.068Z,78.91
2022-12-06T18:00:32.159Z,77.88
2022-12-06T18:05:34.510Z,76.36
2022-12-06T18:10:36.723Z,76.32
2022-12-06T18:15:38.849Z,76.06
2022-12-06T18:20:43.106Z,76.17
2022-12-06T18:25:45.195Z,74.77
2022-12-06T18:30:47.362Z,74.73
2022-12-06T18:35:55.095Z,74.84
2022-12-06T18:41:09.207Z,75.66
2022-12-06T18:46:25.908Z,76.44
2022-12-06T18:51:32.244Z,76.74
2022-12-06T18:56:35.175Z,77.25
2022-12-06T19:01:38.980Z,77.94
2022-12-06T19:06:42.762Z,78.14
2022-12-06T19:11:46.371Z,78.32
2022-12-06T19:16:50.211Z,79.43
2022-12-06T19:21:54.346Z,78.17
2022-12-06T19:26:59.704Z,78.83
2022-12-06T19:32:02.541Z,79.32
2022-12-06T19:37:04.691Z,78.91
2022-12-06T19:42:25.566Z,78.34
2022-12-06T19:47:27.698Z,77.79
2022-12-06T19:52:31.116Z,77.51
2022-12-06T19:57:33.382Z,76.86
2022-12-06T20:02:35.543Z,77.08
2022-12-06T20:07:40.841Z,78.28
2022-12-06T20:12:43.015Z,78.17
2022-12-06T20:17:45.480Z,78.08
2022-12-06T20:22:53.874Z,77.22
2022-12-06T20:27:57.261Z,77.32
2022-12-06T20:32:59.503Z,77.85
2022-12-06T20:38:01.571Z,78.77
2022-12-06T20:43:03.680Z,80.04
2022-12-06T20:48:05.997Z,81.29
2022-12-06T20:53:08.092Z,82.36
2022-12-06T20:58:11.113Z,82.34
2022-12-06T21:03:13.443Z,81.59
2022-12-06T21:08:17.685Z,81.42
2022-12-06T21:13:20.285Z,80.77
2022-12-06T21:18:25.611Z,80.30
2022-12-06T21:23:31.493Z,80.77
2022-12-06T21:28:33.577Z,82.35
2022-12-06T21:33:35.784Z,84.50
2022-12-06T21:38:38.084Z,85.74
2022-12-06T21:43:40.365Z,86.34
2022-12-06T21:48:45.445Z,86.32
2022-12-06T21:53:48.452Z,86.02
2022-12-06T21:58:50.894Z,85.99
2022-12-06T22:03:55.139Z,86.09
2022-12-06T22:09:02.642Z,87.26
2022-12-06T22:14:05.577Z,87.77
2022-12-06T22:19:07.687Z,87.72
2022-12-06T22:24:09.862Z,87.13
2022-12-06T22:29:11.995Z,87.05
2022-12-06T22:34:14.323Z,88.01
2022-12-06T22:39:16.488Z,87.01
2022-12-06T22:44:21.858Z,87.20
2022-12-06T22:49:24.149Z,85.76
2022-12-06T22:54:26.297Z,84.85
2022-12-06T22:59:29.424Z,84.41
2022-12-06T23:04:31.567Z,83.97
2022-12-06T23:09:33.759Z,83.85
2022-12-06T23:14:36.052Z,83.36
2022-12-06T23:19:38.144Z,83.11
2022-12-06T23:24:40.374Z,82.95
2022-12-06T23:29:42.449Z,82.48
2022-12-06T23:34:44.509Z,83.21
2022-12-06T23:39:46.707Z,84.30
2022-12-06T23:44:48.778Z,85.29
2022-12-06T23:49:50.875Z,86.96
2022-12-06T23:54:52.982Z,87.64
2022-12-06T23:59:55.109Z,86.92
